sensor_id;sensor_type;location;lat;lon;timestamp;pressure;altitude;pressure_sealevel;temperature;humidity
36380;BME280;22411;53.016;18.632;2024-01-30T00:01:27;102130.94;;;-0.17;100.00
36380;BME280;22411;53.016;18.632;2024-01-30T00:03:53;102125.84;;;-0.18;100.00
36380;BME280;22411;53.016;18.632;2024-01-30T00:06:19;102129.22;;;-0.18;100.00
36380;BME280;22411;53.016;18.632;2024-01-30T00:08:46;102125.81;;;-0.23;100.00
36380;BME280;22411;53.016;18.632;2024-01-30T00:11:14;102129.22;;;-0.24;100.00
36380;BME280;22411;53.016;18.632;2024-01-30T00:13:41;102123.28;;;-0.29;100.00
36380;BME280;22411;53.016;18.632;2024-01-30T00:16:07;102122.41;;;-0.33;100.00
36380;BME280;22411;53.016;18.632;2024-01-30T00:18:33;102119.00;;;-0.33;100.00
36380;BME280;22411;53.016;18.632;2024-01-30T00:20:59;102122.41;;;-0.34;100.00
36380;BME280;22411;53.016;18.632;2024-01-30T00:23:24;102119.84;;;-0.37;100.00
36380;BME280;22411;53.016;18.632;2024-01-30T00:25:50;102113.06;;;-0.40;100.00
36380;BME280;22411;53.016;18.632;2024-01-30T00:28:16;102120.69;;;-0.38;100.00
36380;BME280;22411;53.016;18.632;2024-01-30T00:30:42;102120.72;;;-0.37;100.00
36380;BME280;22411;53.016;18.632;2024-01-30T00:33:08;102116.47;;;-0.36;100.00
36380;BME280;22411;53.016;18.632;2024-01-30T00:35:34;102119.03;;;-0.36;100.00
36380;BME280;22411;53.016;18.632;2024-01-30T00:38:00;102114.78;;;-0.36;100.00
36380;BME280;22411;53.016;18.632;2024-01-30T00:40:26;102116.44;;;-0.39;100.00
36380;BME280;22411;53.016;18.632;2024-01-30T00:42:52;102119.00;;;-0.39;100.00
36380;BME280;22411;53.016;18.632;2024-01-30T00:45:17;102117.31;;;-0.40;100.00
36380;BME280;22411;53.016;18.632;2024-01-30T00:47:44;102116.44;;;-0.42;100.00
36380;BME280;22411;53.016;18.632;2024-01-30T00:50:09;102110.50;;;-0.46;100.00
36380;BME280;22411;53.016;18.632;2024-01-30T00:52:35;102111.31;;;-0.50;100.00
36380;BME280;22411;53.016;18.632;2024-01-30T00:55:01;102107.91;;;-0.49;100.00
36380;BME280;22411;53.016;18.632;2024-01-30T00:57:27;102107.94;;;-0.52;100.00
36380;BME280;22411;53.016;18.632;2024-01-30T00:59:52;102110.44;;;-0.60;100.00
36380;BME280;22411;53.016;18.632;2024-01-30T01:02:18;102117.25;;;-0.63;100.00
36380;BME280;22411;53.016;18.632;2024-01-30T01:04:44;102104.47;;;-0.66;100.00
36380;BME280;22411;53.016;18.632;2024-01-30T01:07:11;102110.41;;;-0.72;100.00
36380;BME280;22411;53.016;18.632;2024-01-30T01:09:37;102105.28;;;-0.75;100.00
36380;BME280;22411;53.016;18.632;2024-01-30T01:12:03;102099.34;;;-0.77;100.00
36380;BME280;22411;53.016;18.632;2024-01-30T01:14:29;102101.91;;;-0.75;100.00
36380;BME280;22411;53.016;18.632;2024-01-30T01:16:55;102105.28;;;-0.75;100.00
36380;BME280;22411;53.016;18.632;2024-01-30T01:19:21;102099.34;;;-0.74;100.00
36380;BME280;22411;53.016;18.632;2024-01-30T01:21:47;102090.03;;;-0.76;100.00
36380;BME280;22411;53.016;18.632;2024-01-30T01:24:13;102097.66;;;-0.76;100.00
36380;BME280;22411;53.016;18.632;2024-01-30T01:26:39;102094.25;;;-0.75;100.00
36380;BME280;22411;53.016;18.632;2024-01-30T01:29:06;102094.28;;;-0.72;100.00
36380;BME280;22411;53.016;18.632;2024-01-30T01:31:36;102094.25;;;-0.75;100.00
36380;BME280;22411;53.016;18.632;2024-01-30T01:34:05;102095.94;;;-0.74;100.00
36380;BME280;22411;53.016;18.632;2024-01-30T01:36:31;102086.63;;;-0.75;100.00
36380;BME280;22411;53.016;18.632;2024-01-30T01:38:57;102084.94;;;-0.73;100.00
36380;BME280;22411;53.016;18.632;2024-01-30T01:41:23;102078.97;;;-0.74;100.00
36380;BME280;22411;53.016;18.632;2024-01-30T01:43:48;102079.84;;;-0.76;100.00
36380;BME280;22411;53.016;18.632;2024-01-30T01:46:14;102083.22;;;-0.82;100.00
36380;BME280;22411;53.016;18.632;2024-01-30T01:48:41;102081.50;;;-0.82;100.00
36380;BME280;22411;53.016;18.632;2024-01-30T01:51:09;102073.88;;;-0.83;100.00
36380;BME280;22411;53.016;18.632;2024-01-30T01:53:35;102076.41;;;-0.86;100.00
36380;BME280;22411;53.016;18.632;2024-01-30T01:56:01;102075.56;;;-0.87;100.00
36380;BME280;22411;53.016;18.632;2024-01-30T01:58:27;102080.66;;;-0.84;100.00
36380;BME280;22411;53.016;18.632;2024-01-30T02:00:55;102084.94;;;-0.76;100.00
36380;BME280;22411;53.016;18.632;2024-01-30T02:03:21;102084.91;;;-0.75;100.00
36380;BME280;22411;53.016;18.632;2024-01-30T02:05:47;102080.69;;;-0.76;100.00
36380;BME280;22411;53.016;18.632;2024-01-30T02:08:13;102077.31;;;-0.73;100.00
36380;BME280;22411;53.016;18.632;2024-01-30T02:10:39;102065.41;;;-0.74;100.00
36380;BME280;22411;53.016;18.632;2024-01-30T02:13:04;102078.13;;;-0.74;100.00
36380;BME280;22411;53.016;18.632;2024-01-30T02:15:30;102072.19;;;-0.75;100.00
36380;BME280;22411;53.016;18.632;2024-01-30T02:17:56;102079.84;;;-0.76;100.00
36380;BME280;22411;53.016;18.632;2024-01-30T02:20:23;102074.75;;;-0.76;100.00
36380;BME280;22411;53.016;18.632;2024-01-30T02:22:52;102074.72;;;-0.80;100.00
36380;BME280;22411;53.016;18.632;2024-01-30T02:25:19;102062.00;;;-0.81;100.00
36380;BME280;22411;53.016;18.632;2024-01-30T02:27:45;102079.81;;;-0.84;100.00
36380;BME280;22411;53.016;18.632;2024-01-30T02:30:11;102073.84;;;-0.89;100.00
36380;BME280;22411;53.016;18.632;2024-01-30T02:32:37;102078.91;;;-0.95;100.00
36380;BME280;22411;53.016;18.632;2024-01-30T02:35:03;102072.13;;;-0.98;100.00
36380;BME280;22411;53.016;18.632;2024-01-30T02:37:28;102078.88;;;-1.01;100.00
36380;BME280;22411;53.016;18.632;2024-01-30T02:39:54;102079.72;;;-1.04;100.00
36380;BME280;22411;53.016;18.632;2024-01-30T02:42:20;102079.69;;;-1.07;100.00
36380;BME280;22411;53.016;18.632;2024-01-30T02:44:46;102082.25;;;-1.09;100.00
36380;BME280;22411;53.016;18.632;2024-01-30T02:47:11;102089.88;;;-1.09;100.00
36380;BME280;22411;53.016;18.632;2024-01-30T02:49:37;102088.19;;;-1.08;100.00
36380;BME280;22411;53.016;18.632;2024-01-30T02:52:03;102080.56;;;-1.08;100.00
36380;BME280;22411;53.016;18.632;2024-01-30T02:54:29;102087.34;;;-1.09;100.00
36380;BME280;22411;53.016;18.632;2024-01-30T02:56:56;102087.31;;;-1.12;100.00
36380;BME280;22411;53.016;18.632;2024-01-30T02:59:21;102083.91;;;-1.14;100.00
36380;BME280;22411;53.016;18.632;2024-01-30T03:01:47;102088.16;;;-1.14;100.00
36380;BME280;22411;53.016;18.632;2024-01-30T03:04:13;102089.84;;;-1.16;100.00
36380;BME280;22411;53.016;18.632;2024-01-30T03:06:39;102088.97;;;-1.17;100.00
36380;BME280;22411;53.016;18.632;2024-01-30T03:09:09;102084.75;;;-1.18;100.00
36380;BME280;22411;53.016;18.632;2024-01-30T03:11:35;102084.75;;;-1.18;100.00
36380;BME280;22411;53.016;18.632;2024-01-30T03:14:02;102082.19;;;-1.19;100.00
36380;BME280;22411;53.016;18.632;2024-01-30T03:16:27;102080.50;;;-1.20;100.00
36380;BME280;22411;53.016;18.632;2024-01-30T03:18:53;102072.84;;;-1.22;100.00
36380;BME280;22411;53.016;18.632;2024-01-30T03:21:18;102074.56;;;-1.21;100.00
36380;BME280;22411;53.016;18.632;2024-01-30T03:23:44;102075.41;;;-1.17;100.00
36380;BME280;22411;53.016;18.632;2024-01-30T03:26:10;102071.16;;;-1.17;100.00
36380;BME280;22411;53.016;18.632;2024-01-30T03:28:38;102077.09;;;-1.18;100.00
36380;BME280;22411;53.016;18.632;2024-01-30T03:31:03;102072.88;;;-1.17;100.00
36380;BME280;22411;53.016;18.632;2024-01-30T03:33:29;102069.47;;;-1.16;100.00
36380;BME280;22411;53.016;18.632;2024-01-30T03:35:55;102073.72;;;-1.18;100.00
36380;BME280;22411;53.016;18.632;2024-01-30T03:38:21;102066.09;;;-1.20;100.00
36380;BME280;22411;53.016;18.632;2024-01-30T03:40:46;102066.94;;;-1.18;100.00
36380;BME280;22411;53.016;18.632;2024-01-30T03:43:12;102066.09;;;-1.15;100.00
36380;BME280;22411;53.016;18.632;2024-01-30T03:45:38;102064.38;;;-1.16;100.00
36380;BME280;22411;53.016;18.632;2024-01-30T03:48:04;102055.91;;;-1.17;100.00
36380;BME280;22411;53.016;18.632;2024-01-30T03:50:30;102057.63;;;-1.16;100.00
36380;BME280;22411;53.016;18.632;2024-01-30T03:52:56;102072.03;;;-1.13;100.00
36380;BME280;22411;53.016;18.632;2024-01-30T03:55:21;102070.34;;;-1.13;100.00
36380;BME280;22411;53.016;18.632;2024-01-30T03:57:47;102067.81;;;-1.13;100.00
36380;BME280;22411;53.016;18.632;2024-01-30T04:00:14;102068.66;;;-1.12;100.00
36380;BME280;22411;53.016;18.632;2024-01-30T04:02:40;102072.06;;;-1.10;100.00
36380;BME280;22411;53.016;18.632;2024-01-30T04:05:06;102077.16;;;-1.09;100.00
36380;BME280;22411;53.016;18.632;2024-01-30T04:07:32;102083.09;;;-1.08;100.00
36380;BME280;22411;53.016;18.632;2024-01-30T04:09:57;102081.41;;;-1.09;100.00
36380;BME280;22411;53.016;18.632;2024-01-30T04:12:23;102072.91;;;-1.10;100.00
36380;BME280;22411;53.016;18.632;2024-01-30T04:14:49;102074.63;;;-1.09;100.00
36380;BME280;22411;53.016;18.632;2024-01-30T04:17:15;102073.75;;;-1.06;100.00
36380;BME280;22411;53.016;18.632;2024-01-30T04:19:41;102076.31;;;-1.08;100.00
36380;BME280;22411;53.016;18.632;2024-01-30T04:22:07;102077.13;;;-1.12;100.00
36380;BME280;22411;53.016;18.632;2024-01-30T04:24:32;102071.22;;;-1.11;100.00
36380;BME280;22411;53.016;18.632;2024-01-30T04:26:58;102078.84;;;-1.11;100.00
36380;BME280;22411;53.016;18.632;2024-01-30T04:29:23;102074.59;;;-1.15;100.00
36380;BME280;22411;53.016;18.632;2024-01-30T04:31:49;102074.56;;;-1.16;100.00
36380;BME280;22411;53.016;18.632;2024-01-30T04:34:15;102070.31;;;-1.20;100.00
36380;BME280;22411;53.016;18.632;2024-01-30T04:36:44;102070.31;;;-1.20;100.00
36380;BME280;22411;53.016;18.632;2024-01-30T04:39:10;102076.25;;;-1.18;100.00
36380;BME280;22411;53.016;18.632;2024-01-30T04:41:36;102076.25;;;-1.20;100.00
36380;BME280;22411;53.016;18.632;2024-01-30T04:44:01;102067.78;;;-1.19;100.00
36380;BME280;22411;53.016;18.632;2024-01-30T04:46:27;102071.19;;;-1.12;100.00
36380;BME280;22411;53.016;18.632;2024-01-30T04:48:53;102072.91;;;-1.13;100.00
36380;BME280;22411;53.016;18.632;2024-01-30T04:51:19;102066.09;;;-1.14;100.00
36380;BME280;22411;53.016;18.632;2024-01-30T04:53:45;102064.41;;;-1.13;100.00
36380;BME280;22411;53.016;18.632;2024-01-30T04:56:10;102067.84;;;-1.10;100.00
36380;BME280;22411;53.016;18.632;2024-01-30T04:58:36;102067.84;;;-1.05;100.00
36380;BME280;22411;53.016;18.632;2024-01-30T05:01:02;102070.41;;;-1.05;100.00
36380;BME280;22411;53.016;18.632;2024-01-30T05:03:28;102066.97;;;-1.09;100.00
36380;BME280;22411;53.016;18.632;2024-01-30T05:05:54;102075.47;;;-1.08;100.00
36380;BME280;22411;53.016;18.632;2024-01-30T05:08:19;102074.63;;;-1.10;100.00
36380;BME280;22411;53.016;18.632;2024-01-30T05:10:45;102076.28;;;-1.12;100.00
36380;BME280;22411;53.016;18.632;2024-01-30T05:13:11;102072.06;;;-1.10;100.00
36380;BME280;22411;53.016;18.632;2024-01-30T05:15:39;102072.06;;;-1.09;100.00
36380;BME280;22411;53.016;18.632;2024-01-30T05:18:05;102073.75;;;-1.08;100.00
36380;BME280;22411;53.016;18.632;2024-01-30T05:20:30;102076.34;;;-1.04;100.00
36380;BME280;22411;53.016;18.632;2024-01-30T05:22:56;102071.25;;;-1.03;100.00
36380;BME280;22411;53.016;18.632;2024-01-30T05:25:22;102066.97;;;-1.07;100.00
36380;BME280;22411;53.016;18.632;2024-01-30T05:27:48;102069.53;;;-1.06;100.00
36380;BME280;22411;53.016;18.632;2024-01-30T05:30:14;102075.47;;;-1.08;100.00
36380;BME280;22411;53.016;18.632;2024-01-30T05:32:40;102070.38;;;-1.08;100.00
36380;BME280;22411;53.016;18.632;2024-01-30T05:35:06;102069.53;;;-1.07;100.00
36380;BME280;22411;53.016;18.632;2024-01-30T05:37:33;102062.75;;;-1.10;100.00
36380;BME280;22411;53.016;18.632;2024-01-30T05:39:59;102070.38;;;-1.07;100.00
36380;BME280;22411;53.016;18.632;2024-01-30T05:42:25;102064.44;;;-1.06;100.00
36380;BME280;22411;53.016;18.632;2024-01-30T05:44:51;102072.09;;;-1.01;100.00
36380;BME280;22411;53.016;18.632;2024-01-30T05:47:17;102075.50;;;-0.99;100.00
36380;BME280;22411;53.016;18.632;2024-01-30T05:49:42;102078.06;;;-0.93;100.00
36380;BME280;22411;53.016;18.632;2024-01-30T05:52:08;102067.06;;;-0.87;100.00
36380;BME280;22411;53.016;18.632;2024-01-30T05:54:34;102069.63;;;-0.83;100.00
36380;BME280;22411;53.016;18.632;2024-01-30T05:56:59;102072.19;;;-0.83;100.00
36380;BME280;22411;53.016;18.632;2024-01-30T05:59:25;102071.31;;;-0.83;100.00
36380;BME280;22411;53.016;18.632;2024-01-30T06:01:51;102071.31;;;-0.83;100.00
36380;BME280;22411;53.016;18.632;2024-01-30T06:04:17;102071.31;;;-0.85;100.00
36380;BME280;22411;53.016;18.632;2024-01-30T06:06:42;102074.72;;;-0.84;100.00
36380;BME280;22411;53.016;18.632;2024-01-30T06:09:08;102069.63;;;-0.80;100.00
36380;BME280;22411;53.016;18.632;2024-01-30T06:11:34;102062.84;;;-0.76;100.00
36380;BME280;22411;53.016;18.632;2024-01-30T06:14:00;102067.97;;;-0.73;100.00
36380;BME280;22411;53.016;18.632;2024-01-30T06:16:26;102067.13;;;-0.73;100.00
36380;BME280;22411;53.016;18.632;2024-01-30T06:18:56;102067.97;;;-0.73;100.00
36380;BME280;22411;53.016;18.632;2024-01-30T06:21:22;102068.81;;;-0.72;100.00
36380;BME280;22411;53.016;18.632;2024-01-30T06:23:47;102071.38;;;-0.71;100.00
36380;BME280;22411;53.016;18.632;2024-01-30T06:26:13;102067.13;;;-0.67;100.00
36380;BME280;22411;53.016;18.632;2024-01-30T06:28:39;102075.66;;;-0.51;100.00
36380;BME280;22411;53.016;18.632;2024-01-30T06:31:04;102086.72;;;-0.46;100.00
36380;BME280;22411;53.016;18.632;2024-01-30T06:33:30;102077.38;;;-0.38;100.00
36380;BME280;22411;53.016;18.632;2024-01-30T06:35:56;102085.91;;;-0.32;100.00
36380;BME280;22411;53.016;18.632;2024-01-30T06:38:22;102085.91;;;-0.36;100.00
36380;BME280;22411;53.016;18.632;2024-01-30T06:40:47;102085.91;;;-0.32;100.00
36380;BME280;22411;53.016;18.632;2024-01-30T06:43:13;102092.69;;;-0.31;100.00
36380;BME280;22411;53.016;18.632;2024-01-30T06:45:39;102085.91;;;-0.21;100.00
36380;BME280;22411;53.016;18.632;2024-01-30T06:48:05;102078.28;;;-0.21;100.00
36380;BME280;22411;53.016;18.632;2024-01-30T06:50:30;102082.50;;;-0.17;100.00
36380;BME280;22411;53.016;18.632;2024-01-30T06:52:56;102085.94;;;-0.10;100.00
36380;BME280;22411;53.016;18.632;2024-01-30T06:55:22;102091.00;;;-0.01;100.00
36380;BME280;22411;53.016;18.632;2024-01-30T06:57:48;102090.19;;;0.06;100.00
36380;BME280;22411;53.016;18.632;2024-01-30T07:00:14;102093.56;;;0.14;100.00
36380;BME280;22411;53.016;18.632;2024-01-30T07:02:41;102091.84;;;0.21;100.00
36380;BME280;22411;53.016;18.632;2024-01-30T07:05:07;102093.56;;;0.30;100.00
36380;BME280;22411;53.016;18.632;2024-01-30T07:07:33;102089.31;;;0.30;100.00
36380;BME280;22411;53.016;18.632;2024-01-30T07:09:59;102094.41;;;0.41;100.00
36380;BME280;22411;53.016;18.632;2024-01-30T07:12:25;102091.84;;;0.47;100.00
36380;BME280;22411;53.016;18.632;2024-01-30T07:14:51;102085.03;;;0.50;100.00
36380;BME280;22411;53.016;18.632;2024-01-30T07:17:17;102086.75;;;0.55;100.00
36380;BME280;22411;53.016;18.632;2024-01-30T07:19:43;102087.59;;;0.55;100.00
36380;BME280;22411;53.016;18.632;2024-01-30T07:22:09;102096.94;;;0.59;100.00
36380;BME280;22411;53.016;18.632;2024-01-30T07:24:34;102088.41;;;0.68;100.00
36380;BME280;22411;53.016;18.632;2024-01-30T07:27:00;102082.44;;;0.73;100.00
36380;BME280;22411;53.016;18.632;2024-01-30T07:29:26;102082.47;;;0.69;100.00
36380;BME280;22411;53.016;18.632;2024-01-30T07:31:52;102084.97;;;0.81;100.00
36380;BME280;22411;53.016;18.632;2024-01-30T07:34:17;102084.94;;;0.89;100.00
36380;BME280;22411;53.016;18.632;2024-01-30T07:36:43;102080.66;;;0.94;100.00
36380;BME280;22411;53.016;18.632;2024-01-30T07:39:09;102091.72;;;0.99;100.00
36380;BME280;22411;53.016;18.632;2024-01-30T07:41:35;102084.03;;;1.03;100.00
36380;BME280;22411;53.016;18.632;2024-01-30T07:44:02;102088.28;;;1.08;100.00
36380;BME280;22411;53.016;18.632;2024-01-30T07:46:28;102091.63;;;1.16;100.00
36380;BME280;22411;53.016;18.632;2024-01-30T07:48:54;102089.94;;;1.19;100.00
36380;BME280;22411;53.016;18.632;2024-01-30T07:51:21;102090.75;;;1.24;100.00
36380;BME280;22411;53.016;18.632;2024-01-30T07:53:47;102092.41;;;1.38;100.00
36380;BME280;22411;53.016;18.632;2024-01-30T07:56:13;102089.78;;;1.50;100.00
36380;BME280;22411;53.016;18.632;2024-01-30T07:58:38;102095.69;;;1.58;100.00
36380;BME280;22411;53.016;18.632;2024-01-30T08:01:04;102091.38;;;1.68;100.00
36380;BME280;22411;53.016;18.632;2024-01-30T08:03:30;102089.59;;;1.77;100.00
36380;BME280;22411;53.016;18.632;2024-01-30T08:05:56;102098.13;;;1.81;100.00
36380;BME280;22411;53.016;18.632;2024-01-30T08:08:21;102087.81;;;1.89;100.00
36380;BME280;22411;53.016;18.632;2024-01-30T08:10:47;102092.03;;;1.96;100.00
36380;BME280;22411;53.016;18.632;2024-01-30T08:13:14;102098.81;;;2.01;100.00
36380;BME280;22411;53.016;18.632;2024-01-30T08:15:40;102086.84;;;2.05;100.00
36380;BME280;22411;53.016;18.632;2024-01-30T08:18:05;102096.97;;;2.16;100.00
36380;BME280;22411;53.016;18.632;2024-01-30T08:20:32;102091.75;;;2.29;100.00
36380;BME280;22411;53.016;18.632;2024-01-30T08:22:58;102098.50;;;2.38;100.00
36380;BME280;22411;53.016;18.632;2024-01-30T08:25:26;102096.72;;;2.46;100.00
36380;BME280;22411;53.016;18.632;2024-01-30T08:27:51;102097.47;;;2.56;100.00
36380;BME280;22411;53.016;18.632;2024-01-30T08:30:17;102098.28;;;2.61;100.00
36380;BME280;22411;53.016;18.632;2024-01-30T08:32:43;102099.03;;;2.72;100.00
36380;BME280;22411;53.016;18.632;2024-01-30T08:35:08;102093.84;;;2.77;100.00
36380;BME280;22411;53.016;18.632;2024-01-30T08:37:34;102092.91;;;2.85;100.00
36380;BME280;22411;53.016;18.632;2024-01-30T08:40:00;102095.34;;;2.96;100.00
36380;BME280;22411;53.016;18.632;2024-01-30T08:42:27;102096.94;;;3.06;100.00
36380;BME280;22411;53.016;18.632;2024-01-30T08:44:53;102098.59;;;3.12;100.00
36380;BME280;22411;53.016;18.632;2024-01-30T08:47:19;102096.75;;;3.22;100.00
36380;BME280;22411;53.016;18.632;2024-01-30T08:49:45;102094.97;;;3.28;100.00
36380;BME280;22411;53.016;18.632;2024-01-30T08:52:11;102088.91;;;3.34;100.00
36380;BME280;22411;53.016;18.632;2024-01-30T08:54:37;102096.47;;;3.43;100.00
36380;BME280;22411;53.016;18.632;2024-01-30T08:57:03;102093.69;;;3.57;100.00
36380;BME280;22411;53.016;18.632;2024-01-30T08:59:29;102096.19;;;3.63;100.00
36380;BME280;22411;53.016;18.632;2024-01-30T09:01:55;102098.59;;;3.74;100.00
36380;BME280;22411;53.016;18.632;2024-01-30T09:04:23;102104.50;;;3.80;100.00
36380;BME280;22411;53.016;18.632;2024-01-30T09:06:50;102099.31;;;3.83;100.00
36380;BME280;22411;53.016;18.632;2024-01-30T09:09:17;102106.06;;;3.90;100.00
36380;BME280;22411;53.016;18.632;2024-01-30T09:11:43;102103.34;;;3.98;100.00
36380;BME280;22411;53.016;18.632;2024-01-30T09:14:09;102101.69;;;3.94;100.00
36380;BME280;22411;53.016;18.632;2024-01-30T09:16:35;102098.09;;;4.07;100.00
36380;BME280;22411;53.016;18.632;2024-01-30T09:19:01;102100.38;;;4.24;100.00
36380;BME280;22411;53.016;18.632;2024-01-30T09:21:26;102095.66;;;4.49;100.00
36380;BME280;22411;53.016;18.632;2024-01-30T09:23:54;102097.97;;;4.63;100.00
36380;BME280;22411;53.016;18.632;2024-01-30T09:26:20;102099.44;;;5.19;100.00
36380;BME280;22411;53.016;18.632;2024-01-30T09:28:46;102105.06;;;5.75;100.00
36380;BME280;22411;53.016;18.632;2024-01-30T09:31:12;102102.50;;;6.13;100.00
36380;BME280;22411;53.016;18.632;2024-01-30T09:33:38;102100.06;;;6.41;100.00
36380;BME280;22411;53.016;18.632;2024-01-30T09:36:05;102094.16;;;6.70;100.00
36380;BME280;22411;53.016;18.632;2024-01-30T09:38:31;102087.63;;;7.19;100.00
36380;BME280;22411;53.016;18.632;2024-01-30T09:41:00;102090.75;;;7.58;100.00
36380;BME280;22411;53.016;18.632;2024-01-30T09:43:33;102092.41;;;7.87;100.00
36380;BME280;22411;53.016;18.632;2024-01-30T09:46:02;102093.94;;;8.19;100.00
36380;BME280;22411;53.016;18.632;2024-01-30T09:48:30;102091.59;;;8.40;100.00
36380;BME280;22411;53.016;18.632;2024-01-30T09:50:57;102091.84;;;8.80;100.00
36380;BME280;22411;53.016;18.632;2024-01-30T09:53:23;102101.50;;;9.24;100.00
36380;BME280;22411;53.016;18.632;2024-01-30T09:55:50;102090.06;;;9.95;100.00
36380;BME280;22411;53.016;18.632;2024-01-30T09:58:16;102093.66;;;10.74;100.00
36380;BME280;22411;53.016;18.632;2024-01-30T10:00:42;102088.66;;;11.09;100.00
36380;BME280;22411;53.016;18.632;2024-01-30T10:03:09;102088.09;;;11.21;100.00
36380;BME280;22411;53.016;18.632;2024-01-30T10:05:35;102080.94;;;11.26;96.17
36380;BME280;22411;53.016;18.632;2024-01-30T10:08:06;102085.81;;;11.32;95.78
36380;BME280;22411;53.016;18.632;2024-01-30T10:10:33;102088.63;;;10.90;97.64
36380;BME280;22411;53.016;18.632;2024-01-30T10:13:00;102071.94;;;10.77;97.20
36380;BME280;22411;53.016;18.632;2024-01-30T10:15:27;102073.63;;;10.96;100.00
36380;BME280;22411;53.016;18.632;2024-01-30T10:17:53;102066.34;;;11.60;95.95
36380;BME280;22411;53.016;18.632;2024-01-30T10:20:19;102077.50;;;12.50;87.04
36380;BME280;22411;53.016;18.632;2024-01-30T10:22:45;102071.06;;;13.38;80.16
36380;BME280;22411;53.016;18.632;2024-01-30T10:25:11;102067.81;;;14.69;64.39
36380;BME280;22411;53.016;18.632;2024-01-30T10:27:39;102069.78;;;15.89;55.78
36380;BME280;22411;53.016;18.632;2024-01-30T10:30:05;102067.91;;;16.55;48.84
36380;BME280;22411;53.016;18.632;2024-01-30T10:32:31;102070.59;;;17.89;46.13
36380;BME280;22411;53.016;18.632;2024-01-30T10:34:57;102064.00;;;18.97;40.96
36380;BME280;22411;53.016;18.632;2024-01-30T10:37:25;102066.81;;;20.13;37.01
36380;BME280;22411;53.016;18.632;2024-01-30T10:39:53;102061.97;;;20.59;36.71
36380;BME280;22411;53.016;18.632;2024-01-30T10:42:19;102067.59;;;21.45;34.68
36380;BME280;22411;53.016;18.632;2024-01-30T10:44:57;102064.53;;;21.50;33.30
36380;BME280;22411;53.016;18.632;2024-01-30T10:47:27;102069.38;;;21.25;32.76
36380;BME280;22411;53.016;18.632;2024-01-30T10:49:54;102063.47;;;21.02;32.81
36380;BME280;22411;53.016;18.632;2024-01-30T10:52:23;102063.28;;;21.54;32.66
36380;BME280;22411;53.016;18.632;2024-01-30T10:54:50;102061.47;;;21.83;32.12
36380;BME280;22411;53.016;18.632;2024-01-30T10:57:17;102060.03;;;21.99;31.56
36380;BME280;22411;53.016;18.632;2024-01-30T10:59:43;102065.88;;;22.86;30.89
36380;BME280;22411;53.016;18.632;2024-01-30T11:02:11;102073.63;;;23.43;29.54
36380;BME280;22411;53.016;18.632;2024-01-30T11:04:37;102070.56;;;23.91;28.96
36380;BME280;22411;53.016;18.632;2024-01-30T11:07:17;102067.09;;;24.17;28.07
36380;BME280;22411;53.016;18.632;2024-01-30T11:09:53;102061.97;;;24.15;27.96
36380;BME280;22411;53.016;18.632;2024-01-30T11:12:26;102059.06;;;24.00;28.55
36380;BME280;22411;53.016;18.632;2024-01-30T11:17:42;102050.63;;;23.43;28.59
36380;BME280;22411;53.016;18.632;2024-01-30T11:20:15;102048.44;;;23.21;28.84
36380;BME280;22411;53.016;18.632;2024-01-30T11:22:51;102045.22;;;22.44;29.31
36380;BME280;22411;53.016;18.632;2024-01-30T11:25:19;102040.53;;;21.33;30.71
36380;BME280;22411;53.016;18.632;2024-01-30T11:27:46;102045.31;;;21.09;31.18
36380;BME280;22411;53.016;18.632;2024-01-30T11:33:05;102026.94;;;20.17;32.08
36380;BME280;22411;53.016;18.632;2024-01-30T11:35:33;102019.47;;;19.71;32.83
36380;BME280;22411;53.016;18.632;2024-01-30T11:38:00;102018.84;;;19.03;34.52
36380;BME280;22411;53.016;18.632;2024-01-30T11:40:30;102026.78;;;17.54;36.87
36380;BME280;22411;53.016;18.632;2024-01-30T11:42:58;102020.28;;;16.50;39.10
36380;BME280;22411;53.016;18.632;2024-01-30T11:45:23;102019.25;;;18.09;36.28
36380;BME280;22411;53.016;18.632;2024-01-30T11:47:49;102008.41;;;18.58;35.25
36380;BME280;22411;53.016;18.632;2024-01-30T11:50:16;102007.44;;;18.37;34.85
36380;BME280;22411;53.016;18.632;2024-01-30T11:52:42;102002.22;;;18.25;36.01
36380;BME280;22411;53.016;18.632;2024-01-30T11:55:09;101995.69;;;17.85;37.06
36380;BME280;22411;53.016;18.632;2024-01-30T11:57:35;102005.63;;;16.60;38.98
36380;BME280;22411;53.016;18.632;2024-01-30T12:00:04;101997.50;;;14.94;44.84
36380;BME280;22411;53.016;18.632;2024-01-30T12:02:39;101995.09;;;15.18;45.00
36380;BME280;22411;53.016;18.632;2024-01-30T12:05:06;101990.25;;;14.85;47.00
36380;BME280;22411;53.016;18.632;2024-01-30T12:07:32;101996.94;;;15.70;43.72
36380;BME280;22411;53.016;18.632;2024-01-30T12:09:58;101993.16;;;15.07;45.68
36380;BME280;22411;53.016;18.632;2024-01-30T12:12:25;101988.41;;;15.14;44.75
36380;BME280;22411;53.016;18.632;2024-01-30T12:14:51;101990.16;;;15.80;43.73
36380;BME280;22411;53.016;18.632;2024-01-30T12:19:50;101982.97;;;15.17;44.80
36380;BME280;22411;53.016;18.632;2024-01-30T12:22:16;101975.00;;;14.36;48.96
36380;BME280;22411;53.016;18.632;2024-01-30T12:24:41;101978.44;;;14.36;48.03
36380;BME280;22411;53.016;18.632;2024-01-30T12:27:07;101971.31;;;12.90;55.94
36380;BME280;22411;53.016;18.632;2024-01-30T12:29:33;101962.41;;;12.13;62.55
36380;BME280;22411;53.016;18.632;2024-01-30T12:31:59;101956.94;;;12.51;61.06
36380;BME280;22411;53.016;18.632;2024-01-30T12:34:25;101961.41;;;12.80;60.14
36380;BME280;22411;53.016;18.632;2024-01-30T12:36:51;101950.91;;;12.17;61.87
36380;BME280;22411;53.016;18.632;2024-01-30T12:39:17;101952.81;;;11.98;66.57